Time;durP1;ratioP1;P1;durP2;ratioP2;P2;SDS_P1;SDS_P2;PMS_P1;PMS_P2;Temp;Humidity;BMP_temperature;BMP_pressure;BME280_temperature;BME280_humidity;BME280_pressure;Samples;Min_cycle;Max_cycle;Signal;HPM_P1;HPM_P2
2021/09/23 00:00:49;;;;;;;;;;;;;;;20.52;53.27;101155.97;5039320;28;2061;-47
2021/09/23 00:06:01;;;;;;;;;;;;;;;20.52;53.60;101164.88;5047965;28;1659;-47
2021/09/23 00:08:28;;;;;;;;;;;;;;;20.51;54.29;101152.41;5044675;28;1699;-48
2021/09/23 00:10:54;;;;;;;;;;;;;;;20.52;53.58;101162.19;5047674;28;2063;-47
2021/09/23 00:13:23;;;;;;;;;;;;;;;20.55;53.63;101159.25;5047790;28;1934;-47
2021/09/23 00:15:50;;;;;;;;;;;;;;;20.54;53.85;101162.06;5039433;28;1787;-46
2021/09/23 00:18:18;;;;;;;;;;;;;;;20.49;53.41;101159.75;5047569;28;1781;-46
2021/09/23 00:20:46;;;;;;;;;;;;;;;20.51;54.02;101133.59;5047005;28;1918;-46
2021/09/23 00:23:13;;;;;;;;;;;;;;;20.52;54.26;101142.53;5044205;28;1076;-46
2021/09/23 00:25:40;;;;;;;;;;;;;;;20.53;53.45;101163.03;5047923;28;1820;-46
2021/09/23 00:28:07;;;;;;;;;;;;;;;20.48;53.78;101150.03;5048291;28;1858;-46
2021/09/23 00:30:34;;;;;;;;;;;;;;;20.50;53.50;101156.09;5045583;28;1667;-46
2021/09/23 00:33:01;;;;;;;;;;;;;;;20.52;54.42;101147.91;5042691;28;1524;-47
2021/09/23 00:35:28;;;;;;;;;;;;;;;20.67;53.44;101162.69;5040994;28;1739;-47
2021/09/23 00:37:55;;;;;;;;;;;;;;;20.44;53.71;101151.28;5041238;28;1093;-47
2021/09/23 00:40:22;;;;;;;;;;;;;;;20.50;53.59;101153.41;5045802;28;1979;-46
2021/09/23 00:42:48;;;;;;;;;;;;;;;20.50;53.61;101166.84;5045364;28;1774;-46
2021/09/23 00:45:16;;;;;;;;;;;;;;;20.54;54.29;101160.22;5045196;28;1846;-46
2021/09/23 00:47:43;;;;;;;;;;;;;;;20.53;54.00;101157.66;5045099;28;1473;-46
2021/09/23 00:50:10;;;;;;;;;;;;;;;20.50;53.96;101161.47;5044792;28;1701;-48
2021/09/23 00:52:38;;;;;;;;;;;;;;;20.51;54.35;101160.47;5043221;28;1206;-46
2021/09/23 00:55:06;;;;;;;;;;;;;;;20.55;53.72;101161.06;5043105;28;1926;-46
2021/09/23 00:57:32;;;;;;;;;;;;;;;20.52;53.94;101151.44;5045852;28;1722;-47
2021/09/23 00:59:59;;;;;;;;;;;;;;;20.54;54.00;101135.19;5044563;28;1973;-47
2021/09/23 01:02:25;;;;;;;;;;;;;;;20.53;54.20;101137.03;5044906;28;1561;-46
2021/09/23 01:04:52;;;;;;;;;;;;;;;20.49;54.25;101119.47;5046999;28;1840;-46
2021/09/23 01:07:20;;;;;;;;;;;;;;;20.54;53.70;101148.63;5043504;28;994;-46
2021/09/23 01:09:49;;;;;;;;;;;;;;;20.52;53.68;101148.75;5040720;28;2246;-46
2021/09/23 01:12:15;;;;;;;;;;;;;;;20.54;53.94;101146.78;5044706;28;1661;-47
2021/09/23 01:14:42;;;;;;;;;;;;;;;20.52;54.59;101151.44;5042002;28;1084;-46
2021/09/23 01:17:09;;;;;;;;;;;;;;;20.54;53.96;101149.47;5046874;28;1680;-46
2021/09/23 01:19:36;;;;;;;;;;;;;;;20.54;54.06;101138.72;5045616;28;1977;-46
2021/09/23 01:22:04;;;;;;;;;;;;;;;20.53;53.76;101138.84;5044594;28;1910;-46
2021/09/23 01:24:30;;;;;;;;;;;;;;;20.50;53.83;101134.59;5040189;28;1733;-47
2021/09/23 01:26:57;;;;;;;;;;;;;;;20.54;53.85;101137.88;5047031;28;1682;-46
2021/09/23 01:29:23;;;;;;;;;;;;;;;20.53;54.57;101123.59;5046545;28;1728;-46
2021/09/23 01:31:50;;;;;;;;;;;;;;;20.54;54.54;101157.53;5044593;28;2193;-46
2021/09/23 01:34:16;;;;;;;;;;;;;;;20.52;53.51;101129.94;5044414;28;1706;-47
2021/09/23 01:36:43;;;;;;;;;;;;;;;20.53;53.75;101150.47;5045505;28;1050;-46
2021/09/23 01:39:11;;;;;;;;;;;;;;;20.48;53.70;101152.69;5037568;28;1913;-46
2021/09/23 01:41:37;;;;;;;;;;;;;;;20.48;53.55;101159.91;5047250;28;1905;-46
2021/09/23 01:44:04;;;;;;;;;;;;;;;20.49;54.33;101135.59;5044165;28;1819;-46
2021/09/23 01:46:31;;;;;;;;;;;;;;;20.50;54.64;101148.03;5044317;28;1949;-47
2021/09/23 01:48:57;;;;;;;;;;;;;;;20.47;54.08;101156.34;5042834;28;1084;-46
2021/09/23 01:51:23;;;;;;;;;;;;;;;20.48;53.96;101168.81;5048541;28;1611;-47
2021/09/23 01:53:50;;;;;;;;;;;;;;;20.44;54.49;101145.91;5036409;28;2021;-46
2021/09/23 01:56:18;;;;;;;;;;;;;;;20.45;54.37;101142.22;5043627;28;1874;-47
2021/09/23 01:58:44;;;;;;;;;;;;;;;20.43;54.51;101153.13;5044658;28;1171;-46
2021/09/23 02:01:11;;;;;;;;;;;;;;;20.44;54.58;101156.66;5158229;23;3375;-49
2021/09/23 02:03:37;;;;;;;;;;;;;;;20.43;53.50;101171.06;5084330;28;1539;-48
2021/09/23 02:06:04;;;;;;;;;;;;;;;20.42;54.73;101166.69;5082995;28;1690;-49
2021/09/23 02:08:30;;;;;;;;;;;;;;;20.41;53.74;101167.66;5084129;28;1042;-48
2021/09/23 02:10:57;;;;;;;;;;;;;;;20.35;53.79;101168.19;5084934;28;2100;-48
2021/09/23 02:13:25;;;;;;;;;;;;;;;20.39;54.27;101177.69;5084851;28;1630;-49
2021/09/23 02:15:51;;;;;;;;;;;;;;;20.38;53.72;101173.31;5076241;28;1800;-50
2021/09/23 02:18:18;;;;;;;;;;;;;;;20.37;54.56;101158.16;5084879;28;1531;-49
2021/09/23 02:20:44;;;;;;;;;;;;;;;20.35;54.69;101147.56;5084276;28;1902;-49
2021/09/23 02:23:11;;;;;;;;;;;;;;;20.34;53.53;101161.13;5081770;28;1084;-49
2021/09/23 02:25:37;;;;;;;;;;;;;;;20.33;54.46;101144.16;5084748;28;2256;-49
2021/09/23 02:28:04;;;;;;;;;;;;;;;20.33;54.51;101170.16;5083427;28;1680;-48
2021/09/23 02:30:32;;;;;;;;;;;;;;;20.32;54.40;101173.84;5082403;28;1924;-48
2021/09/23 02:32:59;;;;;;;;;;;;;;;20.33;54.59;101176.38;5082665;28;1633;-48
2021/09/23 02:35:25;;;;;;;;;;;;;;;20.31;54.65;101177.50;5082410;28;1700;-48
2021/09/23 02:37:52;;;;;;;;;;;;;;;20.34;54.64;101177.25;5078619;28;1169;-48
2021/09/23 02:40:18;;;;;;;;;;;;;;;20.32;53.32;101173.84;5082662;28;1548;-49
2021/09/23 02:42:45;;;;;;;;;;;;;;;20.30;53.66;101160.56;5083573;28;1963;-49
2021/09/23 02:45:11;;;;;;;;;;;;;;;20.30;53.96;101182.03;5086665;28;1631;-49
2021/09/23 02:47:39;;;;;;;;;;;;;;;20.29;54.63;101166.03;5086376;28;1599;-49
2021/09/23 02:50:06;;;;;;;;;;;;;;;20.25;53.88;101155.59;5087357;28;1805;-49
2021/09/23 02:52:33;;;;;;;;;;;;;;;20.28;54.16;101151.78;5084896;28;1133;-48
2021/09/23 02:54:59;;;;;;;;;;;;;;;20.27;53.76;101176.91;5083830;28;1946;-48
2021/09/23 02:57:26;;;;;;;;;;;;;;;20.30;53.55;101165.06;5086221;28;1677;-49
2021/09/23 02:59:52;;;;;;;;;;;;;;;20.33;54.23;101180.91;5086557;28;1881;-49
2021/09/23 03:02:19;;;;;;;;;;;;;;;20.30;54.46;101176.66;5087207;28;1967;-50
2021/09/23 03:04:47;;;;;;;;;;;;;;;20.34;54.02;101179.94;5088008;28;2563;-50
2021/09/23 03:07:13;;;;;;;;;;;;;;;20.31;53.57;101186.41;5084723;28;1001;-49
2021/09/23 03:09:40;;;;;;;;;;;;;;;20.30;53.74;101179.34;5080244;28;1697;-48
2021/09/23 03:12:07;;;;;;;;;;;;;;;20.32;54.43;101181.91;5086804;28;1779;-49
2021/09/23 03:14:33;;;;;;;;;;;;;;;20.31;54.23;101180.19;5084985;28;1598;-48
2021/09/23 03:17:00;;;;;;;;;;;;;;;20.30;54.67;101181.19;5090269;28;1900;-48
2021/09/23 03:19:27;;;;;;;;;;;;;;;20.33;54.16;101186.28;5086013;28;1949;-49
2021/09/23 03:21:55;;;;;;;;;;;;;;;20.29;53.80;101203.66;5085710;28;1973;-49
2021/09/23 03:24:21;;;;;;;;;;;;;;;20.29;53.27;101190.22;5089493;28;1667;-48
2021/09/23 03:26:48;;;;;;;;;;;;;;;20.26;53.75;101185.97;5087404;28;2011;-48
2021/09/23 03:29:15;;;;;;;;;;;;;;;20.26;54.46;101181.44;5087684;28;1753;-47
2021/09/23 03:31:41;;;;;;;;;;;;;;;20.23;53.11;101176.34;5085612;28;1959;-45
2021/09/23 03:34:08;;;;;;;;;;;;;;;20.25;53.14;101171.69;5083992;28;1623;-48
2021/09/23 03:36:35;;;;;;;;;;;;;;;20.27;53.66;101179.59;5087683;28;1107;-46
2021/09/23 03:39:04;;;;;;;;;;;;;;;20.30;53.40;101181.19;5084478;28;1944;-46
2021/09/23 03:41:32;;;;;;;;;;;;;;;20.24;53.06;101161.09;5086654;28;1910;-46
2021/09/23 03:43:59;;;;;;;;;;;;;;;20.26;53.49;101165.34;5085516;28;1658;-46
2021/09/23 03:46:25;;;;;;;;;;;;;;;20.23;54.15;101165.63;5085892;28;1173;-47
2021/09/23 03:48:51;;;;;;;;;;;;;;;20.22;53.61;101180.00;5087808;28;1820;-46
2021/09/23 03:51:18;;;;;;;;;;;;;;;20.26;53.15;101186.81;5086288;28;1705;-46
2021/09/23 03:53:45;;;;;;;;;;;;;;;20.24;54.21;101183.41;5076346;28;1621;-47
2021/09/23 03:56:13;;;;;;;;;;;;;;;20.21;54.11;101180.13;5085778;28;1492;-47
2021/09/23 03:58:40;;;;;;;;;;;;;;;20.23;53.18;101183.53;5089352;28;1543;-46
2021/09/23 04:01:06;;;;;;;;;;;;;;;20.24;53.51;101198.69;5087379;28;1980;-46
2021/09/23 04:03:33;;;;;;;;;;;;;;;20.24;53.06;101202.22;5086808;28;1581;-47
2021/09/23 04:06:00;;;;;;;;;;;;;;;20.24;54.17;101204.06;5081415;28;2749;-47
2021/09/23 04:08:27;;;;;;;;;;;;;;;20.25;54.31;101205.75;5093764;28;1744;-47
2021/09/23 04:10:53;;;;;;;;;;;;;;;20.25;52.83;101222.72;5085784;28;1042;-46
2021/09/23 04:13:21;;;;;;;;;;;;;;;20.30;54.43;101221.47;5087107;28;1984;-46
2021/09/23 04:15:49;;;;;;;;;;;;;;;20.25;53.74;101217.34;5078117;28;1974;-46
2021/09/23 04:18:17;;;;;;;;;;;;;;;20.26;53.66;101219.03;5086936;28;1625;-46
2021/09/23 04:20:44;;;;;;;;;;;;;;;20.27;54.25;101210.03;5086669;28;1643;-46
2021/09/23 04:23:10;;;;;;;;;;;;;;;20.34;53.81;101220.22;5087482;28;1940;-45
2021/09/23 04:25:37;;;;;;;;;;;;;;;20.26;52.99;101227.09;5088590;28;1751;-46
2021/09/23 04:28:03;;;;;;;;;;;;;;;20.29;53.92;101241.25;5085575;28;1601;-45
2021/09/23 04:30:32;;;;;;;;;;;;;;;20.22;53.61;101231.03;5084157;28;1744;-47
2021/09/23 04:32:58;;;;;;;;;;;;;;;20.21;53.38;101221.28;5078828;28;1633;-47
2021/09/23 04:35:25;;;;;;;;;;;;;;;20.22;53.76;101217.59;5084195;28;1793;-46
2021/09/23 04:37:51;;;;;;;;;;;;;;;20.26;53.92;101227.09;5085555;28;1723;-45
2021/09/23 04:40:18;;;;;;;;;;;;;;;20.22;53.60;101227.50;5088619;28;1831;-45
2021/09/23 04:42:44;;;;;;;;;;;;;;;20.24;53.75;101221.00;5084117;28;1935;-46
2021/09/23 04:45:11;;;;;;;;;;;;;;;20.24;53.23;101234.44;5089970;28;1682;-47
2021/09/23 04:47:39;;;;;;;;;;;;;;;20.22;53.58;101222.13;5087608;28;1532;-47
2021/09/23 04:50:05;;;;;;;;;;;;;;;20.22;53.74;101222.97;5083043;28;1678;-46
2021/09/23 04:52:32;;;;;;;;;;;;;;;20.40;54.66;101219.69;5083672;28;1500;-46
2021/09/23 04:54:59;;;;;;;;;;;;;;;20.89;52.99;101234.22;5081260;28;1670;-46
2021/09/23 04:57:25;;;;;;;;;;;;;;;21.04;53.60;101227.44;5085799;28;1704;-47
2021/09/23 04:59:52;;;;;;;;;;;;;;;21.13;53.10;101239.22;5083831;28;1650;-46
2021/09/23 05:02:18;;;;;;;;;;;;;;;21.17;53.42;101250.53;5089406;28;1913;-47
2021/09/23 05:04:47;;;;;;;;;;;;;;;21.14;53.62;101240.06;5087757;28;1473;-45
2021/09/23 05:07:13;;;;;;;;;;;;;;;21.19;53.02;101244.06;5082358;28;1631;-46
2021/09/23 05:09:40;;;;;;;;;;;;;;;21.20;52.69;101229.59;5090560;28;1647;-46
2021/09/23 05:12:06;;;;;;;;;;;;;;;21.18;53.13;101241.50;5085446;28;1583;-46
2021/09/23 05:14:33;;;;;;;;;;;;;;;21.24;53.55;101252.53;5092532;28;1513;-45
2021/09/23 05:17:00;;;;;;;;;;;;;;;21.26;52.99;101257.78;5083779;28;1985;-46
2021/09/23 05:19:26;;;;;;;;;;;;;;;21.26;52.78;101233.59;5088173;28;1772;-46
2021/09/23 05:21:54;;;;;;;;;;;;;;;21.33;53.12;101240.13;5083244;28;2092;-46
2021/09/23 05:24:20;;;;;;;;;;;;;;;21.30;54.00;101240.38;5081466;28;1595;-46
2021/09/23 05:26:47;;;;;;;;;;;;;;;21.31;53.59;101247.47;5085599;28;1663;-45
2021/09/23 05:29:13;;;;;;;;;;;;;;;21.34;53.92;101278.63;5088956;28;2245;-46
2021/09/23 05:31:40;;;;;;;;;;;;;;;21.34;53.00;101257.09;5083395;28;1520;-46
2021/09/23 05:34:06;;;;;;;;;;;;;;;21.35;53.88;101272.28;5083715;28;1749;-47
2021/09/23 05:36:33;;;;;;;;;;;;;;;21.17;54.16;101272.06;5085748;28;1084;-46
2021/09/23 05:39:03;;;;;;;;;;;;;;;21.21;54.63;101276.19;5076672;28;2040;-46
2021/09/23 05:41:30;;;;;;;;;;;;;;;21.05;52.69;101264.13;5087187;28;1918;-46
2021/09/23 05:43:57;;;;;;;;;;;;;;;21.19;53.67;101275.50;5083753;28;1519;-48
2021/09/23 05:46:23;;;;;;;;;;;;;;;21.24;54.04;101282.13;5086403;28;1476;-48
2021/09/23 05:48:50;;;;;;;;;;;;;;;21.29;54.32;101276.34;5087225;28;1737;-45
2021/09/23 05:51:16;;;;;;;;;;;;;;;21.34;53.69;101281.31;5087896;28;1442;-47
2021/09/23 05:53:43;;;;;;;;;;;;;;;21.40;54.31;101283.44;5088471;28;1492;-48
2021/09/23 05:56:11;;;;;;;;;;;;;;;21.42;54.19;101270.69;5087467;28;2280;-47
2021/09/23 05:58:38;;;;;;;;;;;;;;;21.43;54.04;101288.59;5078572;28;1388;-46
2021/09/23 06:01:04;;;;;;;;;;;;;;;21.44;54.27;101283.06;5085195;28;1732;-46
2021/09/23 06:03:31;;;;;;;;;;;;;;;21.50;54.37;101283.50;5087666;28;1989;-49
2021/09/23 06:05:57;;;;;;;;;;;;;;;21.54;53.94;101282.22;5082528;28;1429;-47
2021/09/23 06:08:24;;;;;;;;;;;;;;;21.60;53.71;101279.81;5081558;28;1580;-47
2021/09/23 06:10:50;;;;;;;;;;;;;;;21.64;53.38;101304.63;5085079;28;1619;-46
2021/09/23 06:13:18;;;;;;;;;;;;;;;21.61;53.96;101288.75;5081099;28;1821;-46
2021/09/23 06:15:46;;;;;;;;;;;;;;;21.46;53.63;101291.00;5086704;28;1827;-46
2021/09/23 06:18:12;;;;;;;;;;;;;;;21.53;54.43;101299.38;5083418;28;1574;-47
2021/09/23 06:20:43;;;;;;;;;;;;;;;21.57;53.30;101296.25;5083114;28;1640;-46
2021/09/23 06:23:09;;;;;;;;;;;;;;;21.59;53.83;101312.28;5087199;28;1975;-46
2021/09/23 06:25:37;;;;;;;;;;;;;;;21.59;53.71;101291.59;5086741;28;1610;-46
2021/09/23 06:28:03;;;;;;;;;;;;;;;21.60;53.78;101301.34;5085232;28;1698;-47
2021/09/23 06:30:31;;;;;;;;;;;;;;;21.61;54.39;101315.69;5082411;28;1650;-46
2021/09/23 06:32:58;;;;;;;;;;;;;;;21.62;53.79;101317.38;5086435;28;1591;-45
2021/09/23 06:35:24;;;;;;;;;;;;;;;21.65;54.09;101319.78;5082017;28;1877;-46
2021/09/23 06:37:51;;;;;;;;;;;;;;;21.64;53.48;101308.16;5092537;28;1081;-46
2021/09/23 06:40:17;;;;;;;;;;;;;;;21.63;54.47;101329.84;5083907;28;1640;-47
2021/09/23 06:42:44;;;;;;;;;;;;;;;21.62;53.63;101331.66;5086442;28;1954;-47
2021/09/23 06:45:10;;;;;;;;;;;;;;;21.61;53.81;101329.13;5083896;28;1777;-47
2021/09/23 06:47:38;;;;;;;;;;;;;;;21.62;53.74;101317.38;5080676;28;1568;-46
2021/09/23 06:50:05;;;;;;;;;;;;;;;21.63;54.00;101337.91;5086490;28;1887;-47
2021/09/23 06:52:32;;;;;;;;;;;;;;;21.63;54.31;101313.69;5090502;28;1471;-47
2021/09/23 06:54:58;;;;;;;;;;;;;;;21.61;53.83;101319.22;5086670;28;2194;-47
2021/09/23 06:57:25;;;;;;;;;;;;;;;21.64;53.42;101323.44;5081891;28;1693;-46
2021/09/23 06:59:51;;;;;;;;;;;;;;;21.63;53.99;101327.16;5086044;28;1617;-48
2021/09/23 07:02:18;;;;;;;;;;;;;;;21.68;54.57;101308.72;5079972;28;1897;-47
2021/09/23 07:04:46;;;;;;;;;;;;;;;21.68;53.79;101324.88;5084848;28;1737;-46
2021/09/23 07:07:12;;;;;;;;;;;;;;;21.71;54.95;101334.53;5082490;28;1596;-46
2021/09/23 07:09:39;;;;;;;;;;;;;;;21.67;54.85;101330.44;5087898;28;1604;-46
2021/09/23 07:12:05;;;;;;;;;;;;;;;21.67;54.16;101317.81;5081083;28;1882;-46
2021/09/23 07:14:32;;;;;;;;;;;;;;;21.73;54.86;101335.25;5083132;28;993;-46
2021/09/23 07:16:58;;;;;;;;;;;;;;;21.73;55.51;101336.09;5086296;28;2079;-47
2021/09/23 07:19:25;;;;;;;;;;;;;;;21.71;54.38;101308.47;5084299;28;2027;-46
2021/09/23 07:21:52;;;;;;;;;;;;;;;21.73;54.32;101329.88;5084155;28;1953;-46
2021/09/23 07:24:19;;;;;;;;;;;;;;;21.77;54.10;101307.06;5080641;28;1559;-46
2021/09/23 07:26:45;;;;;;;;;;;;;;;21.88;54.10;101325.75;5081302;28;1692;-47
2021/09/23 07:29:15;;;;;;;;;;;;;;;21.97;53.73;101324.06;5085571;28;2267;-46
2021/09/23 07:31:41;;;;;;;;;;;;;;;22.21;53.84;101310.16;5089207;28;1941;-46
2021/09/23 07:34:08;;;;;;;;;;;;;;;22.15;53.30;101316.97;5084778;28;1468;-49
2021/09/23 07:36:34;;;;;;;;;;;;;;;22.13;53.77;101310.88;5090760;28;1430;-45
2021/09/23 07:39:04;;;;;;;;;;;;;;;22.15;54.41;101324.19;5094201;28;1900;-47
2021/09/23 07:41:31;;;;;;;;;;;;;;;22.19;53.84;101321.06;5086165;28;1621;-48
2021/09/23 07:43:57;;;;;;;;;;;;;;;22.25;53.74;101311.59;5088892;28;1910;-47
2021/09/23 07:46:24;;;;;;;;;;;;;;;22.23;54.19;101317.09;5085633;28;1491;-46
2021/09/23 07:48:53;;;;;;;;;;;;;;;22.30;54.28;101311.16;5078493;28;1500;-47
2021/09/23 07:51:20;;;;;;;;;;;;;;;22.30;53.78;101303.06;5085835;28;1661;-47
2021/09/23 07:53:46;;;;;;;;;;;;;;;22.32;54.40;101306.47;5094393;28;1815;-46
2021/09/23 13:50:08;;;;;;;;;;;;;;;22.15;51.95;101220.00;5059912;28;1792;-45
2021/09/23 13:52:36;;;;;;;;;;;;;;;22.16;52.43;101200.16;5076394;28;2043;-46
2021/09/23 13:55:09;;;;;;;;;;;;;;;22.15;52.52;101214.59;5088155;28;1627;-45
2021/09/23 13:57:37;;;;;;;;;;;;;;;22.20;53.16;101206.06;5091675;28;1580;-46
2021/09/23 14:00:05;;;;;;;;;;;;;;;22.24;53.35;101208.38;5071546;28;1131;-47
2021/09/23 14:02:33;;;;;;;;;;;;;;;22.29;53.17;101190.94;5065410;28;1902;-46
2021/09/23 14:05:00;;;;;;;;;;;;;;;22.27;53.76;101204.53;5091271;28;1610;-47
2021/09/23 14:07:28;;;;;;;;;;;;;;;22.32;53.33;101201.41;5091011;28;2734;-48
2021/09/23 14:09:55;;;;;;;;;;;;;;;22.39;53.91;101205.22;5085256;28;1971;-46
2021/09/23 14:12:21;;;;;;;;;;;;;;;22.32;54.04;101206.78;5082107;28;1111;-46
2021/09/23 14:14:48;;;;;;;;;;;;;;;22.28;54.26;101214.31;5083571;28;1728;-47
2021/09/23 14:17:14;;;;;;;;;;;;;;;22.13;49.19;101219.28;5083907;28;1946;-46
2021/09/23 14:19:41;;;;;;;;;;;;;;;22.10;49.46;101218.72;5082860;28;1576;-47
2021/09/23 14:22:08;;;;;;;;;;;;;;;22.08;51.97;101216.16;5074433;28;1832;-47
2021/09/23 14:24:36;;;;;;;;;;;;;;;22.13;53.56;101221.13;5084853;28;1905;-46
2021/09/23 14:27:03;;;;;;;;;;;;;;;22.16;53.26;101227.09;5086568;28;1818;-45
2021/09/23 14:29:31;;;;;;;;;;;;;;;22.18;53.51;101227.78;5087157;28;2005;-42
2021/09/23 14:32:02;;;;;;;;;;;;;;;22.16;54.10;101234.31;5086552;28;1612;-42
2021/09/23 14:34:32;;;;;;;;;;;;;;;22.11;54.00;101236.59;5087566;28;1591;-43
2021/09/23 14:37:00;;;;;;;;;;;;;;;22.09;53.75;101228.66;5080539;28;1622;-43
2021/09/23 14:39:34;;;;;;;;;;;;;;;22.15;53.97;101240.69;5091870;28;1792;-42
2021/09/23 14:42:23;;;;;;;;;;;;;;;22.15;53.64;101228.06;5093924;28;2170;-43
2021/09/23 14:44:58;;;;;;;;;;;;;;;22.21;54.54;101234.72;5095037;28;1906;-42
2021/09/23 14:47:26;;;;;;;;;;;;;;;22.18;54.27;101230.50;5096342;28;1996;-42
2021/09/23 14:49:56;;;;;;;;;;;;;;;22.14;53.70;101234.44;5096124;28;1934;-42
2021/09/23 14:52:22;;;;;;;;;;;;;;;22.09;54.01;101225.97;5078067;28;2351;-42
2021/09/23 14:54:58;;;;;;;;;;;;;;;22.07;54.50;101222.56;5092754;28;1769;-43
2021/09/23 14:57:27;;;;;;;;;;;;;;;22.08;54.19;101242.25;5091422;28;1087;-42
2021/09/23 14:59:55;;;;;;;;;;;;;;;22.07;53.77;101238.72;5083738;28;1267;-43
2021/09/23 15:02:27;;;;;;;;;;;;;;;22.04;53.95;101239.88;5091912;28;1939;-41
2021/09/23 15:04:58;;;;;;;;;;;;;;;22.02;54.34;101235.59;5081569;28;1906;-42
2021/09/23 15:07:26;;;;;;;;;;;;;;;22.03;54.82;101234.63;5083558;28;1499;-42
2021/09/23 15:09:52;;;;;;;;;;;;;;;21.99;54.91;101227.81;5090425;28;1628;-42
2021/09/23 15:12:22;;;;;;;;;;;;;;;22.03;54.55;101224.69;5084095;28;1595;-41
2021/09/23 15:14:52;;;;;;;;;;;;;;;22.04;54.81;101234.47;5084087;28;1759;-42
2021/09/23 15:17:21;;;;;;;;;;;;;;;22.04;54.39;101228.22;5092518;28;1782;-43
2021/09/23 15:19:56;;;;;;;;;;;;;;;22.02;54.64;101223.00;5094981;28;1879;-42
2021/09/23 15:22:25;;;;;;;;;;;;;;;21.99;54.60;101225.13;5078807;28;1907;-42
2021/09/23 15:24:56;;;;;;;;;;;;;;;21.97;54.76;101216.34;5089393;28;1977;-42
2021/09/23 15:27:26;;;;;;;;;;;;;;;22.01;54.76;101215.06;5084733;28;1428;-42
2021/09/23 15:29:58;;;;;;;;;;;;;;;21.96;55.08;101209.25;5092367;28;2049;-42
2021/09/23 15:32:26;;;;;;;;;;;;;;;22.04;55.04;101228.22;5082998;28;1583;-42
2021/09/23 15:34:53;;;;;;;;;;;;;;;22.07;54.83;101222.56;5094897;28;2037;-42
2021/09/23 15:37:20;;;;;;;;;;;;;;;22.07;54.44;101219.03;5095120;28;1835;-43
2021/09/23 15:39:46;;;;;;;;;;;;;;;22.11;54.87;101221.28;5090687;28;1489;-42
2021/09/23 15:42:17;;;;;;;;;;;;;;;22.10;54.34;101218.72;5095454;28;1480;-43
2021/09/23 15:44:47;;;;;;;;;;;;;;;22.05;54.70;101227.25;5094299;28;1979;-42
2021/09/23 15:47:27;;;;;;;;;;;;;;;22.05;54.53;101203.00;5087346;28;1947;-42
2021/09/23 15:52:36;;;;;;;;;;;;;;;21.97;55.15;101214.50;5078495;28;2436;-42
2021/09/23 15:55:03;;;;;;;;;;;;;;;21.98;55.60;101218.03;5094938;28;1786;-43
2021/09/23 15:57:29;;;;;;;;;;;;;;;22.00;55.20;101213.34;5093842;28;1599;-43
2021/09/23 15:59:56;;;;;;;;;;;;;;;22.05;54.83;101219.16;5088581;28;1324;-42
2021/09/23 16:02:24;;;;;;;;;;;;;;;22.01;55.24;101217.75;5084187;28;2700;-44
2021/09/23 16:04:50;;;;;;;;;;;;;;;21.97;54.99;101210.97;5090723;28;1913;-43
2021/09/23 16:07:17;;;;;;;;;;;;;;;21.98;55.73;101207.25;5093288;28;1516;-42
2021/09/23 16:09:43;;;;;;;;;;;;;;;22.00;55.20;101213.34;5083215;28;1150;-44
2021/09/23 16:12:10;;;;;;;;;;;;;;;21.95;55.75;101208.41;5088307;28;1678;-44
2021/09/23 16:14:36;;;;;;;;;;;;;;;21.88;55.02;101206.44;5084169;28;2274;-44
2021/09/23 16:17:03;;;;;;;;;;;;;;;21.90;55.71;101204.44;5087987;28;1620;-44
2021/09/23 16:19:31;;;;;;;;;;;;;;;21.90;55.80;101209.84;5090709;28;1632;-45
2021/09/23 16:21:57;;;;;;;;;;;;;;;21.89;54.61;101208.16;5085121;28;1494;-43
2021/09/23 16:24:24;;;;;;;;;;;;;;;21.82;55.58;101219.47;5085505;28;1930;-44
2021/09/23 16:26:51;;;;;;;;;;;;;;;21.89;55.46;101202.75;5091849;28;1543;-44
2021/09/23 16:29:17;;;;;;;;;;;;;;;21.91;55.65;101204.31;5083017;28;1508;-42
2021/09/23 16:31:44;;;;;;;;;;;;;;;22.00;55.37;101194.50;5080757;28;2007;-41
2021/09/23 16:34:10;;;;;;;;;;;;;;;21.97;55.64;101184.03;5088611;28;1655;-43
2021/09/23 16:36:39;;;;;;;;;;;;;;;22.01;55.47;101201.59;5084010;28;1335;-44
2021/09/23 16:39:06;;;;;;;;;;;;;;;21.96;56.13;101193.09;5093023;28;1630;-42
2021/09/23 16:41:33;;;;;;;;;;;;;;;21.98;56.08;101186.56;5077937;28;1552;-41
2021/09/23 16:43:59;;;;;;;;;;;;;;;22.00;56.39;101190.00;5083881;28;1973;-49
2021/09/23 16:46:26;;;;;;;;;;;;;;;21.97;56.00;101187.56;5086090;28;1619;-46
2021/09/23 16:48:52;;;;;;;;;;;;;;;22.13;55.21;101184.28;5087542;28;1551;-49
2021/09/23 16:51:19;;;;;;;;;;;;;;;22.06;56.06;101193.91;5085703;28;1370;-47
2021/09/23 16:53:47;;;;;;;;;;;;;;;22.02;56.29;101200.59;5083666;28;1824;-46
2021/09/23 16:56:13;;;;;;;;;;;;;;;22.02;56.54;101192.50;5086159;28;1473;-47
2021/09/23 16:58:40;;;;;;;;;;;;;;;22.12;56.07;101211.34;5083448;28;1616;-48
2021/09/23 17:01:07;;;;;;;;;;;;;;;22.04;56.31;101199.47;5084417;28;1960;-48
2021/09/23 17:03:33;;;;;;;;;;;;;;;22.03;56.25;101208.53;5085401;28;1905;-47
2021/09/23 17:06:01;;;;;;;;;;;;;;;21.98;55.69;101212.66;5089673;28;1601;-47
2021/09/23 17:08:28;;;;;;;;;;;;;;;21.93;56.18;101210.41;5091555;28;1654;-46
2021/09/23 17:10:56;;;;;;;;;;;;;;;21.93;56.60;101209.56;5092602;28;1549;-47
2021/09/23 17:13:22;;;;;;;;;;;;;;;21.91;55.85;101211.53;5082462;28;1353;-48
2021/09/23 17:15:49;;;;;;;;;;;;;;;21.51;53.24;101242.16;5087532;28;2078;-48
2021/09/23 17:18:15;;;;;;;;;;;;;;;21.27;54.38;101213.78;5090454;28;1753;-49
2021/09/23 17:20:42;;;;;;;;;;;;;;;21.53;55.31;101221.34;5083042;28;1284;-48
2021/09/23 17:23:08;;;;;;;;;;;;;;;21.63;55.23;101222.19;5087679;28;1528;-48
2021/09/23 17:25:36;;;;;;;;;;;;;;;21.34;55.00;101235.56;5089007;28;1989;-48
2021/09/23 17:28:05;;;;;;;;;;;;;;;21.61;54.07;101256.47;5077448;28;1569;-49
2021/09/23 17:30:31;;;;;;;;;;;;;;;21.71;55.45;101225.00;5080319;28;1941;-49
2021/09/23 17:33:02;;;;;;;;;;;;;;;21.09;53.61;101224.38;5080264;28;1567;-49
2021/09/23 17:35:28;;;;;;;;;;;;;;;21.45;54.48;101244.41;5083954;28;2076;-49
2021/09/23 17:37:55;;;;;;;;;;;;;;;21.53;55.24;101227.56;5085954;28;1934;-48
2021/09/23 17:40:21;;;;;;;;;;;;;;;21.63;55.24;101267.94;5079934;28;2071;-48
2021/09/23 17:42:48;;;;;;;;;;;;;;;21.62;53.94;101236.63;5083716;28;1580;-49
2021/09/23 17:45:17;;;;;;;;;;;;;;;21.61;54.73;101253.78;5086352;28;1914;-50
2021/09/23 17:47:44;;;;;;;;;;;;;;;21.42;53.49;101259.94;5084477;28;1595;-44
2021/09/23 17:50:11;;;;;;;;;;;;;;;21.60;53.64;101236.75;5077422;28;1611;-44
2021/09/23 17:52:38;;;;;;;;;;;;;;;21.64;53.93;101237.31;5091042;28;1574;-45
2021/09/23 17:55:05;;;;;;;;;;;;;;;21.71;54.52;101233.09;5078267;28;1783;-46
2021/09/23 17:57:33;;;;;;;;;;;;;;;21.79;55.17;101235.91;5082332;28;1544;-47
2021/09/23 17:59:59;;;;;;;;;;;;;;;21.91;55.80;101233.09;5088783;28;1293;-45
2021/09/23 18:02:27;;;;;;;;;;;;;;;21.87;55.99;101232.50;5086166;28;1807;-46
2021/09/23 18:04:54;;;;;;;;;;;;;;;21.82;55.79;101235.63;5076664;28;1976;-44
2021/09/23 18:07:20;;;;;;;;;;;;;;;21.81;55.93;101235.78;5076746;28;1900;-44
2021/09/23 18:09:47;;;;;;;;;;;;;;;21.61;53.30;101232.25;5090109;28;1198;-44
2021/09/23 18:12:13;;;;;;;;;;;;;;;21.08;51.96;101256.75;5085740;28;1465;-43
2021/09/23 18:14:41;;;;;;;;;;;;;;;19.66;52.43;101258.16;5082135;28;1887;-45
2021/09/23 18:17:08;;;;;;;;;;;;;;;20.37;54.14;101247.69;5083679;28;1474;-44
2021/09/23 18:19:36;;;;;;;;;;;;;;;21.19;55.39;101254.81;5083461;28;1685;-45
2021/09/23 18:22:02;;;;;;;;;;;;;;;21.29;54.58;101249.47;5090193;28;1380;-45
2021/09/23 18:24:29;;;;;;;;;;;;;;;21.42;55.22;101260.78;5091124;28;2288;-44
2021/09/23 18:26:55;;;;;;;;;;;;;;;21.43;54.62;101241.00;5085693;28;1755;-44
2021/09/23 18:29:23;;;;;;;;;;;;;;;21.34;55.56;101268.69;5083160;28;2324;-44
2021/09/23 18:31:50;;;;;;;;;;;;;;;21.45;54.45;101255.16;5084681;28;1575;-45
2021/09/23 18:34:19;;;;;;;;;;;;;;;21.43;54.82;101262.53;5085028;28;1601;-45
2021/09/23 18:36:48;;;;;;;;;;;;;;;21.42;55.43;101268.84;5080102;28;2082;-46
2021/09/23 18:39:15;;;;;;;;;;;;;;;21.32;56.21;101270.69;5084450;28;2211;-44
2021/09/23 18:41:42;;;;;;;;;;;;;;;21.39;54.90;101263.78;5083482;28;1599;-45
2021/09/23 18:44:10;;;;;;;;;;;;;;;21.48;54.11;101261.25;5081754;28;1909;-44
2021/09/23 18:46:39;;;;;;;;;;;;;;;21.44;52.07;101276.81;5084136;28;1516;-45